createdAt,value
2024-05-09T00:01:53.801Z,9.60
2024-05-09T00:04:19.830Z,9.60
2024-05-09T00:06:45.045Z,9.50
2024-05-09T00:09:10.211Z,9.50
2024-05-09T00:11:38.182Z,9.40
2024-05-09T00:14:03.414Z,9.40
2024-05-09T00:16:28.722Z,9.40
2024-05-09T00:18:54.225Z,9.30
2024-05-09T00:21:20.175Z,9.30
2024-05-09T00:23:45.471Z,9.30
2024-05-09T00:26:11.002Z,9.20
2024-05-09T00:28:38.864Z,9.20
2024-05-09T00:31:05.376Z,9.10
2024-05-09T00:33:30.763Z,9.10
2024-05-09T00:35:56.103Z,9.00
2024-05-09T00:38:21.415Z,9.00
2024-05-09T00:40:46.735Z,9.00
2024-05-09T00:43:13.544Z,8.90
2024-05-09T00:45:42.672Z,8.90
2024-05-09T00:48:10.656Z,8.90
2024-05-09T00:50:38.546Z,8.80
2024-05-09T00:53:04.291Z,8.80
2024-05-09T00:55:29.578Z,8.70
2024-05-09T00:57:55.501Z,8.70
2024-05-09T01:00:27.290Z,8.70
2024-05-09T01:03:03.675Z,8.70
2024-05-09T01:05:29.138Z,8.60
2024-05-09T01:07:54.417Z,8.60
2024-05-09T01:10:27.610Z,8.60
2024-05-09T01:12:57.321Z,8.60
2024-05-09T01:15:22.549Z,8.50
2024-05-09T01:17:48.029Z,8.60
2024-05-09T01:20:20.301Z,8.50
2024-05-09T01:22:54.153Z,8.50
2024-05-09T01:25:21.980Z,8.40
2024-05-09T01:27:47.196Z,8.40
2024-05-09T01:30:17.313Z,8.40
2024-05-09T01:32:46.723Z,8.40
2024-05-09T01:35:12.095Z,8.30
2024-05-09T01:37:37.318Z,8.30
2024-05-09T01:40:03.519Z,8.30
2024-05-09T01:42:31.415Z,8.20
2024-05-09T01:44:56.591Z,8.20
2024-05-09T01:47:22.005Z,8.10
2024-05-09T01:49:47.296Z,8.10
2024-05-09T01:52:12.567Z,8.10
2024-05-09T01:54:37.721Z,8.00
2024-05-09T01:57:02.970Z,8.00
2024-05-09T01:59:30.856Z,8.00
2024-05-09T02:01:57.752Z,7.90
2024-05-09T02:04:23.437Z,7.90
2024-05-09T02:06:48.936Z,7.90
2024-05-09T02:09:14.131Z,7.80
2024-05-09T02:11:45.591Z,7.70
2024-05-09T02:14:11.412Z,7.80
2024-05-09T02:16:39.258Z,7.60
2024-05-09T02:19:04.724Z,7.60
2024-05-09T02:21:34.211Z,7.60
2024-05-09T02:23:59.483Z,7.60
2024-05-09T02:26:24.726Z,7.60
2024-05-09T02:28:50.257Z,7.40
2024-05-09T02:31:16.007Z,7.40
2024-05-09T02:33:43.995Z,7.30
2024-05-09T02:36:10.494Z,7.30
2024-05-09T02:38:33.296Z,7.30
2024-05-09T02:40:58.603Z,7.20
2024-05-09T02:43:21.214Z,7.10
2024-05-09T02:45:46.387Z,7.10
2024-05-09T02:48:11.396Z,7.10
2024-05-09T02:50:40.894Z,7.10
2024-05-09T02:53:03.890Z,7.00
2024-05-09T02:55:29.127Z,7.00
2024-05-09T02:57:51.741Z,7.00
2024-05-09T03:00:22.822Z,7.00
2024-05-09T03:02:49.269Z,6.90
2024-05-09T03:05:14.735Z,6.90
2024-05-09T03:07:43.041Z,6.80
2024-05-09T03:10:18.190Z,6.80
2024-05-09T03:12:47.737Z,6.80
2024-05-09T03:15:10.290Z,6.70
2024-05-09T03:17:35.771Z,6.80
2024-05-09T03:19:59.065Z,6.70
2024-05-09T03:22:24.382Z,6.70
2024-05-09T03:24:49.594Z,6.70
2024-05-09T03:27:14.809Z,6.60
2024-05-09T03:29:37.720Z,6.60
2024-05-09T03:32:03.545Z,6.50
2024-05-09T03:34:26.212Z,6.50
2024-05-09T03:36:51.594Z,6.50
2024-05-09T03:39:16.798Z,6.50
2024-05-09T03:41:42.193Z,6.50
2024-05-09T03:44:07.829Z,6.50
2024-05-09T03:46:30.452Z,6.50
2024-05-09T03:48:56.677Z,6.50
2024-05-09T03:51:19.466Z,6.40
2024-05-09T03:53:44.836Z,6.40
2024-05-09T03:56:08.473Z,6.50
2024-05-09T03:58:36.540Z,6.40
2024-05-09T04:00:59.289Z,6.40
2024-05-09T04:03:24.874Z,6.40
2024-05-09T04:05:48.306Z,6.50
2024-05-09T04:08:13.674Z,6.50
2024-05-09T04:10:36.313Z,6.50
2024-05-09T04:13:01.800Z,6.50
2024-05-09T04:15:27.543Z,6.60
2024-05-09T04:17:53.942Z,6.70
2024-05-09T04:20:28.690Z,6.60
2024-05-09T04:23:01.754Z,6.70
2024-05-09T04:25:24.446Z,6.70
2024-05-09T04:27:49.631Z,6.70
2024-05-09T04:30:18.968Z,6.80
2024-05-09T04:32:54.064Z,6.80
2024-05-09T04:35:18.684Z,6.90
2024-05-09T04:37:44.022Z,6.90
2024-05-09T04:40:14.181Z,7.00
2024-05-09T04:42:45.838Z,7.10
2024-05-09T04:45:08.709Z,7.20
2024-05-09T04:47:34.071Z,7.20
2024-05-09T04:49:59.389Z,7.30
2024-05-09T04:52:24.620Z,7.40
2024-05-09T04:54:47.181Z,7.50
2024-05-09T04:57:12.370Z,7.60
2024-05-09T04:59:36.549Z,7.70
2024-05-09T05:02:01.956Z,7.90
2024-05-09T05:04:25.103Z,7.90
2024-05-09T05:06:53.025Z,8.00
2024-05-09T05:09:15.615Z,8.00
2024-05-09T05:11:41.014Z,8.20
2024-05-09T05:14:03.678Z,8.30
2024-05-09T05:16:29.551Z,8.30
2024-05-09T05:18:52.420Z,8.50
2024-05-09T05:21:19.376Z,8.60
2024-05-09T05:23:44.876Z,8.80
2024-05-09T05:26:10.338Z,8.70
2024-05-09T05:28:33.009Z,8.90
2024-05-09T05:30:58.320Z,9.00
2024-05-09T05:33:22.542Z,9.10
2024-05-09T05:35:48.438Z,9.20
2024-05-09T05:38:14.117Z,9.50
2024-05-09T05:40:40.632Z,9.40
2024-05-09T05:43:06.703Z,9.50
2024-05-09T05:45:29.378Z,9.70
2024-05-09T05:47:56.663Z,9.80
2024-05-09T05:50:27.382Z,10.10
2024-05-09T05:52:58.357Z,10.30
2024-05-09T05:55:20.964Z,10.80
2024-05-09T05:57:49.804Z,11.20
2024-05-09T06:00:21.537Z,11.60
2024-05-09T06:02:54.047Z,12.10
2024-05-09T06:05:17.522Z,12.70
2024-05-09T06:07:42.808Z,13.10
2024-05-09T06:10:11.446Z,13.50
2024-05-09T06:12:39.742Z,13.90
2024-05-09T06:15:06.495Z,14.20
2024-05-09T06:17:31.985Z,14.60
2024-05-09T06:19:54.781Z,15.10
2024-05-09T06:22:20.206Z,15.50
2024-05-09T06:24:43.274Z,15.90
2024-05-09T06:27:08.870Z,16.40
2024-05-09T06:29:31.687Z,16.90
2024-05-09T06:32:00.339Z,17.20
2024-05-09T06:34:23.417Z,17.50
2024-05-09T06:36:48.983Z,17.90
2024-05-09T06:39:11.646Z,18.40
2024-05-09T06:41:37.006Z,18.90
2024-05-09T06:43:59.722Z,19.30
2024-05-09T06:46:25.555Z,19.60
2024-05-09T06:48:51.087Z,19.40
2024-05-09T06:51:16.855Z,20.00
2024-05-09T06:53:40.728Z,20.40
2024-05-09T06:56:06.139Z,20.60
2024-05-09T06:58:28.766Z,20.70
2024-05-09T07:00:54.080Z,20.50
2024-05-09T07:03:18.439Z,20.60
2024-05-09T07:05:49.148Z,20.60
2024-05-09T07:08:12.895Z,20.30
2024-05-09T07:10:38.787Z,20.00
2024-05-09T07:13:01.601Z,19.70
2024-05-09T07:15:26.865Z,19.60
2024-05-09T07:17:49.774Z,19.40
2024-05-09T07:20:23.496Z,19.20
2024-05-09T07:22:57.431Z,18.70
2024-05-09T07:25:22.669Z,18.80
2024-05-09T07:27:45.303Z,18.70
2024-05-09T07:30:16.656Z,18.40
2024-05-09T07:32:46.152Z,18.30
2024-05-09T07:35:11.587Z,17.80
2024-05-09T07:37:34.297Z,17.60
2024-05-09T07:40:05.840Z,17.70
2024-05-09T07:42:30.070Z,17.60
2024-05-09T07:44:56.910Z,17.40
2024-05-09T07:48:32.075Z,17.30
2024-05-09T07:52:22.670Z,17.20
2024-05-09T07:53:35.281Z,17.20
2024-05-09T07:55:38.178Z,17.10
2024-05-09T07:58:00.865Z,17.00
2024-05-09T08:00:31.093Z,17.00
2024-05-09T08:02:54.994Z,17.00
2024-05-09T08:05:20.426Z,17.00
2024-05-09T08:07:45.311Z,17.10
2024-05-09T08:10:15.243Z,17.10
2024-05-09T08:12:43.975Z,17.20
2024-05-09T08:15:10.195Z,17.20
2024-05-09T08:17:33.007Z,17.20
2024-05-09T08:19:58.281Z,17.10
2024-05-09T08:22:20.971Z,17.10
2024-05-09T08:24:46.999Z,17.10
2024-05-09T08:27:10.202Z,17.20
2024-05-09T08:29:38.105Z,17.20
2024-05-09T08:32:00.779Z,17.30
2024-05-09T08:34:26.739Z,17.30
2024-05-09T08:36:50.026Z,17.30
2024-05-09T08:39:15.246Z,17.20
2024-05-09T08:41:42.188Z,17.20
2024-05-09T08:44:07.481Z,17.00
2024-05-09T08:46:34.197Z,17.10
2024-05-09T08:49:00.485Z,17.10
2024-05-09T08:51:23.344Z,17.10
2024-05-09T08:53:48.674Z,17.20
2024-05-09T08:56:12.357Z,17.20
2024-05-09T08:58:40.421Z,17.20
2024-05-09T09:01:05.321Z,17.20
2024-05-09T09:03:36.564Z,17.20
2024-05-09T09:06:03.010Z,17.20
2024-05-09T09:08:29.427Z,17.20
2024-05-09T09:10:54.235Z,17.20
2024-05-09T09:13:19.513Z,17.10
2024-05-09T09:15:47.699Z,17.20
2024-05-09T09:18:18.271Z,17.20
2024-05-09T09:20:44.432Z,17.30
2024-05-09T09:23:10.646Z,17.30
2024-05-09T09:25:34.119Z,17.40
2024-05-09T09:28:01.519Z,17.40
2024-05-09T09:30:34.572Z,17.50
2024-05-09T09:33:03.064Z,17.60
2024-05-09T09:35:25.724Z,17.50
2024-05-09T09:37:54.617Z,17.60
2024-05-09T09:40:22.430Z,17.60
2024-05-09T09:42:53.105Z,17.90
2024-05-09T09:45:16.669Z,17.90
2024-05-09T09:47:44.729Z,18.00
2024-05-09T09:50:14.227Z,18.20
2024-05-09T09:52:42.393Z,18.20
2024-05-09T09:55:11.271Z,18.30
2024-05-09T09:57:38.476Z,18.60
2024-05-09T10:00:01.633Z,18.90
2024-05-09T10:02:37.210Z,18.90
2024-05-09T10:05:01.297Z,19.10
2024-05-09T10:07:27.783Z,19.30
2024-05-09T10:09:55.239Z,19.50
2024-05-09T10:12:24.216Z,19.90
2024-05-09T10:14:48.923Z,20.00
2024-05-09T10:17:14.168Z,20.10
2024-05-09T10:19:36.909Z,20.50
2024-05-09T10:22:06.184Z,20.60
2024-05-09T10:24:30.050Z,20.80
2024-05-09T10:26:56.654Z,21.00
2024-05-09T10:29:26.489Z,21.20
2024-05-09T10:31:49.248Z,21.30
2024-05-09T10:34:21.119Z,21.40
2024-05-09T10:36:43.997Z,21.70
2024-05-09T10:39:09.682Z,21.90
2024-05-09T10:41:34.019Z,22.30
2024-05-09T10:43:59.432Z,22.30
2024-05-09T10:46:25.238Z,22.30
2024-05-09T10:48:50.774Z,22.50
2024-05-09T10:51:14.202Z,22.60
2024-05-09T10:53:45.038Z,22.80
2024-05-09T10:56:08.133Z,23.00
2024-05-09T10:58:33.355Z,22.80
2024-05-09T11:00:58.274Z,22.70
2024-05-09T11:03:27.063Z,22.80
2024-05-09T11:05:49.852Z,22.70
2024-05-09T11:08:15.708Z,23.00
2024-05-09T11:10:39.596Z,23.10
2024-05-09T11:13:05.051Z,22.90
2024-05-09T11:15:39.361Z,23.10
2024-05-09T11:18:04.705Z,23.40
2024-05-09T11:20:38.155Z,23.50
2024-05-09T11:23:06.457Z,23.80
2024-05-09T11:25:30.516Z,23.70
2024-05-09T11:27:55.837Z,23.90
2024-05-09T11:30:26.993Z,24.40
2024-05-09T11:32:58.302Z,24.60
2024-05-09T11:35:20.922Z,24.40
2024-05-09T11:37:49.145Z,24.70
2024-05-09T11:40:20.998Z,24.70
2024-05-09T11:42:53.017Z,24.60
2024-05-09T11:45:16.029Z,24.70
2024-05-09T11:47:42.600Z,24.70
2024-05-09T11:50:07.997Z,24.40
2024-05-09T11:52:35.534Z,24.40
2024-05-09T11:55:01.883Z,24.80
2024-05-09T11:57:28.901Z,25.30
2024-05-09T11:59:51.816Z,25.40
2024-05-09T12:02:17.298Z,25.20
2024-05-09T12:04:40.140Z,25.20
2024-05-09T12:07:06.205Z,25.10
2024-05-09T12:09:29.516Z,25.30
2024-05-09T12:11:57.471Z,25.40
2024-05-09T12:14:20.065Z,25.50
2024-05-09T12:16:45.414Z,25.90
2024-05-09T12:19:08.229Z,26.10
2024-05-09T12:21:33.584Z,26.10
2024-05-09T12:23:56.750Z,26.20
2024-05-09T12:26:22.044Z,26.00
2024-05-09T12:28:47.370Z,26.00
2024-05-09T12:31:12.669Z,26.20
2024-05-09T12:33:35.555Z,26.10
2024-05-09T12:36:01.129Z,26.10
2024-05-09T12:38:23.873Z,26.20
2024-05-09T12:40:49.246Z,26.60
2024-05-09T12:43:12.307Z,26.80
2024-05-09T12:45:40.646Z,26.90
2024-05-09T12:48:04.782Z,26.70
2024-05-09T12:50:33.281Z,26.70
2024-05-09T12:52:57.207Z,26.60
2024-05-09T12:55:22.695Z,26.80
2024-05-09T12:57:45.400Z,26.70
2024-05-09T13:00:20.701Z,26.60
2024-05-09T13:02:53.023Z,26.30
2024-05-09T13:05:18.436Z,26.00
2024-05-09T13:07:41.551Z,25.80
2024-05-09T13:10:11.616Z,26.00
2024-05-09T13:12:36.575Z,26.30
2024-05-09T13:15:01.800Z,26.40
2024-05-09T13:17:24.639Z,26.40
2024-05-09T13:19:52.722Z,26.30
2024-05-09T13:22:15.453Z,26.30
2024-05-09T13:24:40.760Z,26.10
2024-05-09T13:27:03.730Z,26.50
2024-05-09T13:29:29.069Z,26.50
2024-05-09T13:31:51.755Z,26.40
2024-05-09T13:34:17.171Z,26.60
2024-05-09T13:36:42.561Z,26.60
2024-05-09T13:39:07.902Z,26.40
2024-05-09T13:41:30.535Z,26.40
2024-05-09T13:43:56.080Z,26.30
2024-05-09T13:46:18.892Z,26.30
2024-05-09T13:48:44.303Z,26.00
2024-05-09T13:51:07.105Z,26.40
2024-05-09T13:53:34.932Z,25.90
2024-05-09T13:55:57.651Z,25.70
2024-05-09T13:58:23.624Z,26.30
2024-05-09T14:00:49.003Z,26.30
2024-05-09T14:03:15.434Z,26.20
2024-05-09T14:05:38.987Z,26.30
2024-05-09T14:08:04.383Z,26.60
2024-05-09T14:10:31.771Z,26.80
2024-05-09T14:12:57.766Z,27.20
2024-05-09T14:15:20.490Z,26.80
2024-05-09T14:17:45.780Z,26.80
2024-05-09T14:20:13.966Z,26.50
2024-05-09T14:22:41.069Z,26.60
2024-05-09T14:25:03.892Z,26.60
2024-05-09T14:27:32.401Z,26.60
2024-05-09T14:29:55.503Z,26.40
2024-05-09T14:32:20.868Z,26.00
2024-05-09T14:34:43.625Z,26.10
2024-05-09T14:37:09.236Z,26.30
2024-05-09T14:39:32.022Z,26.40
2024-05-09T14:41:57.226Z,26.60
2024-05-09T14:44:22.530Z,26.60
2024-05-09T14:46:47.914Z,26.20
2024-05-09T14:49:12.426Z,25.70
2024-05-09T14:51:37.939Z,25.90
2024-05-09T14:54:00.951Z,25.60
2024-05-09T14:56:26.287Z,25.40
2024-05-09T14:58:49.072Z,25.40
2024-05-09T15:01:17.014Z,25.10
2024-05-09T15:03:39.862Z,24.90
2024-05-09T15:06:05.531Z,24.90
2024-05-09T15:08:28.450Z,24.60
2024-05-09T15:10:53.807Z,24.50
2024-05-09T15:13:17.770Z,24.50
2024-05-09T15:15:43.215Z,24.10
2024-05-09T15:18:08.956Z,23.90
2024-05-09T15:20:36.545Z,23.80
2024-05-09T15:23:00.238Z,23.80
2024-05-09T15:25:25.565Z,23.80
2024-05-09T15:27:48.928Z,23.40
2024-05-09T15:30:18.127Z,23.00
2024-05-09T15:32:43.410Z,23.10
2024-05-09T15:35:11.645Z,23.10
2024-05-09T15:37:34.342Z,23.00
2024-05-09T15:39:59.667Z,22.90
2024-05-09T15:42:22.416Z,22.90
2024-05-09T15:44:52.816Z,22.90
2024-05-09T15:47:15.544Z,23.00
2024-05-09T15:49:41.790Z,23.00
2024-05-09T15:52:07.536Z,23.00
2024-05-09T15:54:32.870Z,22.80
2024-05-09T15:56:55.630Z,22.70
2024-05-09T15:59:21.362Z,22.40
2024-05-09T16:01:44.320Z,22.40
2024-05-09T16:04:10.678Z,22.30
2024-05-09T16:06:34.079Z,22.10
2024-05-09T16:09:02.158Z,21.90
2024-05-09T16:11:24.897Z,21.90
2024-05-09T16:13:50.340Z,21.90
2024-05-09T16:16:13.167Z,21.80
2024-05-09T16:18:38.749Z,21.80
2024-05-09T16:21:01.850Z,21.70
2024-05-09T16:23:27.223Z,21.70
2024-05-09T16:25:52.698Z,21.60
2024-05-09T16:28:18.220Z,21.50
2024-05-09T16:30:41.304Z,21.50
2024-05-09T16:33:07.623Z,21.50
2024-05-09T16:35:30.882Z,21.40
2024-05-09T16:37:56.167Z,21.40
2024-05-09T16:40:25.744Z,21.30
2024-05-09T16:43:02.906Z,21.20
2024-05-09T16:45:25.519Z,21.20
2024-05-09T16:47:50.938Z,21.20
2024-05-09T16:50:19.222Z,21.20
2024-05-09T16:52:47.957Z,21.20
2024-05-09T16:55:10.719Z,21.20
2024-05-09T16:57:36.209Z,21.20
2024-05-09T17:00:01.469Z,21.10
2024-05-09T17:02:26.890Z,21.00
2024-05-09T17:04:49.710Z,21.00
2024-05-09T17:07:15.207Z,21.00
2024-05-09T17:09:39.165Z,21.00
2024-05-09T17:12:05.079Z,21.00
2024-05-09T17:14:30.310Z,20.90
2024-05-09T17:16:58.285Z,21.00
2024-05-09T17:19:21.035Z,21.00
2024-05-09T17:21:46.405Z,20.90
2024-05-09T17:24:09.063Z,20.80
2024-05-09T17:26:34.462Z,20.80
2024-05-09T17:28:57.319Z,20.80
2024-05-09T17:31:23.023Z,20.70
2024-05-09T17:33:48.449Z,20.70
2024-05-09T17:36:13.869Z,20.70
2024-05-09T17:38:36.577Z,20.70
2024-05-09T17:41:01.914Z,20.70
2024-05-09T17:43:24.836Z,20.60
2024-05-09T17:45:50.506Z,20.60
2024-05-09T17:48:13.394Z,20.50
2024-05-09T17:50:42.197Z,20.50
2024-05-09T17:53:05.642Z,20.40
2024-05-09T17:55:31.368Z,20.40
2024-05-09T17:57:54.292Z,20.30
2024-05-09T18:00:28.857Z,20.20
2024-05-09T18:02:59.447Z,20.20
2024-05-09T18:05:24.933Z,20.10
2024-05-09T18:07:50.422Z,20.00
2024-05-09T18:10:22.214Z,19.90
2024-05-09T18:12:48.665Z,19.80
2024-05-09T18:15:13.939Z,19.70
2024-05-09T18:17:36.713Z,19.70
2024-05-09T18:20:02.171Z,19.60
2024-05-09T18:22:25.030Z,19.50
2024-05-09T18:24:53.520Z,19.40
2024-05-09T18:27:16.319Z,19.30
2024-05-09T18:29:41.569Z,19.20
2024-05-09T18:32:05.224Z,19.10
2024-05-09T18:34:30.629Z,19.00
2024-05-09T18:36:53.515Z,18.90
2024-05-09T18:39:19.770Z,18.80
2024-05-09T18:41:45.119Z,18.70
2024-05-09T18:44:10.427Z,18.60
2024-05-09T18:46:33.237Z,18.50
2024-05-09T18:48:58.578Z,18.30
2024-05-09T18:51:21.394Z,18.20
2024-05-09T18:53:46.601Z,18.10
2024-05-09T18:56:09.496Z,18.00
2024-05-09T18:58:37.425Z,17.90
2024-05-09T19:01:01.920Z,17.70
2024-05-09T19:03:27.615Z,17.60
2024-05-09T19:05:50.569Z,17.50
2024-05-09T19:08:16.098Z,17.40
2024-05-09T19:10:39.915Z,17.30
2024-05-09T19:13:09.398Z,17.20
2024-05-09T19:15:38.387Z,17.10
2024-05-09T19:18:04.205Z,17.00
2024-05-09T19:20:33.088Z,16.80
2024-05-09T19:22:59.980Z,16.80
2024-05-09T19:25:22.631Z,16.70
2024-05-09T19:27:48.660Z,16.60
2024-05-09T19:30:21.002Z,16.50
2024-05-09T19:32:53.846Z,16.40
2024-05-09T19:35:16.616Z,16.30
2024-05-09T19:37:43.834Z,16.20
2024-05-09T19:40:14.696Z,16.20
2024-05-09T19:42:43.582Z,16.10
2024-05-09T19:45:07.874Z,16.00
2024-05-09T19:47:33.288Z,16.00
2024-05-09T19:49:58.620Z,15.90
2024-05-09T19:52:24.595Z,15.90
2024-05-09T19:54:50.054Z,15.80
2024-05-09T19:57:15.514Z,15.70
2024-05-09T19:59:38.159Z,15.70
2024-05-09T20:02:03.589Z,15.60
2024-05-09T20:04:26.677Z,15.50
2024-05-09T20:06:55.537Z,15.40
2024-05-09T20:09:18.236Z,15.30
2024-05-09T20:11:43.564Z,15.30
2024-05-09T20:14:06.213Z,15.30
2024-05-09T20:16:31.507Z,15.20
2024-05-09T20:18:54.307Z,15.10
2024-05-09T20:21:19.872Z,15.10
2024-05-09T20:23:45.104Z,15.10
2024-05-09T20:26:11.319Z,15.00
2024-05-09T20:28:34.715Z,15.00
2024-05-09T20:31:00.206Z,14.90
2024-05-09T20:33:22.963Z,14.80
2024-05-09T20:35:48.228Z,14.80
2024-05-09T20:38:10.861Z,14.70
2024-05-09T20:40:39.874Z,14.70
2024-05-09T20:43:03.053Z,14.60
2024-05-09T20:45:28.709Z,14.50
2024-05-09T20:47:51.468Z,14.50
2024-05-09T20:50:27.412Z,14.40
2024-05-09T20:52:55.752Z,14.40
2024-05-09T20:55:21.096Z,14.30
2024-05-09T20:57:46.538Z,14.20
2024-05-09T21:00:18.621Z,14.20
2024-05-09T21:02:45.037Z,14.10
2024-05-09T21:05:10.723Z,14.00
2024-05-09T21:07:33.515Z,14.00
2024-05-09T21:09:58.973Z,13.90
2024-05-09T21:12:21.637Z,13.90
2024-05-09T21:14:49.580Z,13.80
2024-05-09T21:17:13.073Z,13.70
2024-05-09T21:19:38.285Z,13.70
2024-05-09T21:22:00.983Z,13.60
2024-05-09T21:24:26.221Z,13.60
2024-05-09T21:26:48.920Z,13.60
2024-05-09T21:29:14.219Z,13.50
2024-05-09T21:31:39.537Z,13.50
2024-05-09T21:34:05.072Z,13.40
2024-05-09T21:36:27.806Z,13.40
2024-05-09T21:38:53.052Z,13.40
2024-05-09T21:41:15.764Z,13.30
2024-05-09T21:43:41.449Z,13.30
2024-05-09T21:46:04.682Z,13.20
2024-05-09T21:48:33.216Z,13.20
2024-05-09T21:50:55.991Z,13.20
2024-05-09T21:53:21.913Z,13.10
2024-05-09T21:55:45.027Z,13.10
2024-05-09T21:58:10.937Z,13.00
2024-05-09T22:00:38.223Z,13.00
2024-05-09T22:03:04.920Z,12.90
2024-05-09T22:05:31.151Z,12.90
2024-05-09T22:07:56.672Z,12.90
2024-05-09T22:10:26.207Z,12.80
2024-05-09T22:12:56.337Z,12.80
2024-05-09T22:15:19.414Z,12.80
2024-05-09T22:17:45.217Z,12.80
2024-05-09T22:20:17.837Z,12.70
2024-05-09T22:22:50.276Z,12.70
2024-05-09T22:25:13.604Z,12.60
2024-05-09T22:27:39.653Z,12.60
2024-05-09T22:30:02.934Z,12.60
2024-05-09T22:32:29.514Z,12.60
2024-05-09T22:34:52.615Z,12.50
2024-05-09T22:37:18.104Z,12.50
2024-05-09T22:39:43.532Z,12.50
2024-05-09T22:42:08.866Z,12.50
2024-05-09T22:44:31.473Z,12.40
2024-05-09T22:46:56.803Z,12.40
2024-05-09T22:49:19.508Z,12.40
2024-05-09T22:51:44.951Z,12.30
2024-05-09T22:54:07.852Z,12.30
2024-05-09T22:56:35.945Z,12.20
2024-05-09T22:58:58.562Z,12.30
2024-05-09T23:01:26.717Z,12.20
2024-05-09T23:03:50.229Z,12.20
2024-05-09T23:06:15.729Z,12.20
2024-05-09T23:08:38.309Z,12.10
2024-05-09T23:11:03.933Z,12.10
2024-05-09T23:13:29.220Z,12.10
2024-05-09T23:15:54.596Z,12.10
2024-05-09T23:18:17.340Z,12.00
2024-05-09T23:20:42.699Z,12.10
2024-05-09T23:23:05.654Z,12.00
2024-05-09T23:25:30.995Z,12.00
2024-05-09T23:27:53.680Z,12.00
2024-05-09T23:30:29.368Z,11.90
2024-05-09T23:32:59.834Z,11.90
2024-05-09T23:35:25.447Z,11.90
2024-05-09T23:37:48.101Z,11.90
2024-05-09T23:40:18.654Z,11.90
2024-05-09T23:42:42.136Z,11.80
2024-05-09T23:45:08.465Z,11.90
2024-05-09T23:47:33.942Z,11.80
2024-05-09T23:49:59.235Z,11.80
2024-05-09T23:52:22.509Z,11.80
2024-05-09T23:54:47.822Z,11.80
2024-05-09T23:57:10.520Z,11.80
2024-05-09T23:59:35.773Z,11.80
